Route Details

Aircraft Information
Group: North America Fleet
Types: B738, B752, B762, B763
Route Data
Distance: 1038nm
Duration: 3h 10m
Origin METAR: CYYC 080000Z 34005KT 330V040 15SM FEW060 FEW230 SCT300 02/M03 A2971 RMK SC1CC1CI2 SC TR SLP096
Dest. METAR: KONT 072353Z 29005KT 10SM FEW250 20/M03 A3020 RMK AO2 SLP220 T02001033 10200 20167 56012
Freight Data
(for Feb 8, 2023)
Load Factor:
61%
Manifested Cargo: 48,429lbs
Financial History
Total Freight: 25,741lbs
Average Load: 0lbs/flt
Fuel Used: 7,120lbs
Avg. Fuel Used: 0lbs/flt
Fuel Expense: $3,631
Avg. Fuel Expense: $0
Avg. Fuel Cost: $0/lbs
Total Gross Income: $67,441
Pilot Pay: $239
Total Expenses: $14,595
Total Revenue: $47,779
Average Revenue: $0

Capitol Logistics 448




CYYC
Calgary International Airport
Calgary, CA
KONT
Ontario International Airport
Ontario, US

Activity Log

Date Flight Route Aircraft Duration
11/08/2022 CPX448 DCT SATOV Q890 ROPLA DCT REO J7 REBRG DCT CLASN GLRNO2 B752 3h 52m